sensor_id;sensor_type;location;lat;lon;timestamp;temperature;humidity
10538;DHT22;5317;49.048;8.468;2022-09-09T00:01:23;20.40;76.60
10538;DHT22;5317;49.048;8.468;2022-09-09T00:04:05;20.30;76.30
10538;DHT22;5317;49.048;8.468;2022-09-09T00:06:45;20.40;76.70
10538;DHT22;5317;49.048;8.468;2022-09-09T00:09:19;20.40;76.90
10538;DHT22;5317;49.048;8.468;2022-09-09T00:11:52;20.30;77.00
10538;DHT22;5317;49.048;8.468;2022-09-09T00:14:27;20.40;77.20
10538;DHT22;5317;49.048;8.468;2022-09-09T00:17:04;20.30;77.30
10538;DHT22;5317;49.048;8.468;2022-09-09T00:19:43;20.40;77.40
10538;DHT22;5317;49.048;8.468;2022-09-09T00:22:17;20.40;77.40
10538;DHT22;5317;49.048;8.468;2022-09-09T00:24:46;20.40;77.20
10538;DHT22;5317;49.048;8.468;2022-09-09T00:27:25;20.40;77.10
10538;DHT22;5317;49.048;8.468;2022-09-09T00:30:12;20.40;77.00
10538;DHT22;5317;49.048;8.468;2022-09-09T00:32:41;20.40;76.70
10538;DHT22;5317;49.048;8.468;2022-09-09T00:35:16;20.40;77.50
10538;DHT22;5317;49.048;8.468;2022-09-09T00:37:50;20.50;77.30
10538;DHT22;5317;49.048;8.468;2022-09-09T00:40:32;20.40;76.40
10538;DHT22;5317;49.048;8.468;2022-09-09T00:43:14;20.50;76.60
10538;DHT22;5317;49.048;8.468;2022-09-09T00:46:08;20.40;75.80
10538;DHT22;5317;49.048;8.468;2022-09-09T00:49:04;20.40;75.90
10538;DHT22;5317;49.048;8.468;2022-09-09T00:51:48;20.40;76.00
10538;DHT22;5317;49.048;8.468;2022-09-09T00:54:36;20.40;76.60
10538;DHT22;5317;49.048;8.468;2022-09-09T00:57:17;20.40;76.20
10538;DHT22;5317;49.048;8.468;2022-09-09T00:59:58;20.50;76.30
10538;DHT22;5317;49.048;8.468;2022-09-09T01:02:57;20.50;76.40
10538;DHT22;5317;49.048;8.468;2022-09-09T01:05:37;20.50;75.80
10538;DHT22;5317;49.048;8.468;2022-09-09T01:08:19;20.60;75.60
10538;DHT22;5317;49.048;8.468;2022-09-09T01:11:00;20.50;75.90
10538;DHT22;5317;49.048;8.468;2022-09-09T01:13:30;20.60;75.30
10538;DHT22;5317;49.048;8.468;2022-09-09T01:16:04;20.60;75.50
10538;DHT22;5317;49.048;8.468;2022-09-09T01:18:37;20.60;75.50
10538;DHT22;5317;49.048;8.468;2022-09-09T01:21:17;20.50;75.10
10538;DHT22;5317;49.048;8.468;2022-09-09T01:24:09;20.50;75.10
10538;DHT22;5317;49.048;8.468;2022-09-09T01:26:48;20.50;74.90
10538;DHT22;5317;49.048;8.468;2022-09-09T01:29:19;20.50;75.20
10538;DHT22;5317;49.048;8.468;2022-09-09T01:31:56;20.50;74.80
10538;DHT22;5317;49.048;8.468;2022-09-09T01:34:28;20.50;75.00
10538;DHT22;5317;49.048;8.468;2022-09-09T01:37:00;20.40;73.80
10538;DHT22;5317;49.048;8.468;2022-09-09T01:39:31;20.40;73.30
10538;DHT22;5317;49.048;8.468;2022-09-09T01:42:01;20.30;73.90
10538;DHT22;5317;49.048;8.468;2022-09-09T01:44:31;20.30;74.00
10538;DHT22;5317;49.048;8.468;2022-09-09T01:46:58;20.40;74.40
10538;DHT22;5317;49.048;8.468;2022-09-09T01:49:26;20.30;75.20
10538;DHT22;5317;49.048;8.468;2022-09-09T01:51:55;20.40;74.90
10538;DHT22;5317;49.048;8.468;2022-09-09T01:54:27;20.20;75.30
10538;DHT22;5317;49.048;8.468;2022-09-09T01:57:08;20.20;76.10
10538;DHT22;5317;49.048;8.468;2022-09-09T01:59:50;20.20;76.50
10538;DHT22;5317;49.048;8.468;2022-09-09T02:02:30;20.10;76.90
10538;DHT22;5317;49.048;8.468;2022-09-09T02:05:12;20.00;77.00
10538;DHT22;5317;49.048;8.468;2022-09-09T02:07:51;19.90;77.50
10538;DHT22;5317;49.048;8.468;2022-09-09T02:10:28;20.00;77.30
10538;DHT22;5317;49.048;8.468;2022-09-09T02:13:04;19.90;77.80
10538;DHT22;5317;49.048;8.468;2022-09-09T02:15:40;20.00;77.90
10538;DHT22;5317;49.048;8.468;2022-09-09T02:18:16;20.00;77.70
10538;DHT22;5317;49.048;8.468;2022-09-09T02:20:48;20.00;77.70
10538;DHT22;5317;49.048;8.468;2022-09-09T02:23:17;20.00;77.40
10538;DHT22;5317;49.048;8.468;2022-09-09T02:25:46;19.90;76.90
10538;DHT22;5317;49.048;8.468;2022-09-09T02:28:20;19.90;77.20
10538;DHT22;5317;49.048;8.468;2022-09-09T02:30:51;19.90;76.60
10538;DHT22;5317;49.048;8.468;2022-09-09T02:33:23;19.90;76.40
10538;DHT22;5317;49.048;8.468;2022-09-09T02:35:54;20.00;76.30
10538;DHT22;5317;49.048;8.468;2022-09-09T02:38:32;20.00;75.90
10538;DHT22;5317;49.048;8.468;2022-09-09T02:41:02;20.00;75.80
10538;DHT22;5317;49.048;8.468;2022-09-09T02:43:33;20.00;75.70
10538;DHT22;5317;49.048;8.468;2022-09-09T02:46:11;20.00;75.80
10538;DHT22;5317;49.048;8.468;2022-09-09T02:48:55;20.00;75.90
10538;DHT22;5317;49.048;8.468;2022-09-09T02:51:35;20.00;76.00
10538;DHT22;5317;49.048;8.468;2022-09-09T02:54:17;20.00;75.90
10538;DHT22;5317;49.048;8.468;2022-09-09T02:56:53;19.90;75.80
10538;DHT22;5317;49.048;8.468;2022-09-09T02:59:25;19.90;76.00
10538;DHT22;5317;49.048;8.468;2022-09-09T03:01:53;20.00;76.70
10538;DHT22;5317;49.048;8.468;2022-09-09T03:04:20;20.00;76.20
10538;DHT22;5317;49.048;8.468;2022-09-09T03:06:48;20.00;76.40
10538;DHT22;5317;49.048;8.468;2022-09-09T03:09:15;20.10;76.90
10538;DHT22;5317;49.048;8.468;2022-09-09T03:11:43;20.10;77.10
10538;DHT22;5317;49.048;8.468;2022-09-09T03:14:10;20.10;77.00
10538;DHT22;5317;49.048;8.468;2022-09-09T03:16:39;20.20;77.30
10538;DHT22;5317;49.048;8.468;2022-09-09T03:19:08;20.20;77.60
10538;DHT22;5317;49.048;8.468;2022-09-09T03:21:35;20.20;77.50
10538;DHT22;5317;49.048;8.468;2022-09-09T03:24:02;20.20;77.30
10538;DHT22;5317;49.048;8.468;2022-09-09T03:26:30;20.20;77.10
10538;DHT22;5317;49.048;8.468;2022-09-09T03:28:58;20.20;77.30
10538;DHT22;5317;49.048;8.468;2022-09-09T03:31:26;20.10;77.50
10538;DHT22;5317;49.048;8.468;2022-09-09T03:33:57;20.10;76.90
10538;DHT22;5317;49.048;8.468;2022-09-09T03:36:25;20.10;77.00
10538;DHT22;5317;49.048;8.468;2022-09-09T03:38:53;20.10;77.30
10538;DHT22;5317;49.048;8.468;2022-09-09T03:41:21;20.00;77.60
10538;DHT22;5317;49.048;8.468;2022-09-09T03:43:49;20.00;77.60
10538;DHT22;5317;49.048;8.468;2022-09-09T03:46:17;20.00;77.70
10538;DHT22;5317;49.048;8.468;2022-09-09T03:48:46;19.90;77.60
10538;DHT22;5317;49.048;8.468;2022-09-09T03:51:15;19.90;77.70
10538;DHT22;5317;49.048;8.468;2022-09-09T03:53:45;19.80;77.30
10538;DHT22;5317;49.048;8.468;2022-09-09T03:56:12;19.80;77.30
10538;DHT22;5317;49.048;8.468;2022-09-09T03:58:40;19.80;77.20
10538;DHT22;5317;49.048;8.468;2022-09-09T04:01:09;19.80;77.10
10538;DHT22;5317;49.048;8.468;2022-09-09T04:03:39;19.80;77.50
10538;DHT22;5317;49.048;8.468;2022-09-09T04:06:09;19.90;77.60
10538;DHT22;5317;49.048;8.468;2022-09-09T04:08:41;19.90;77.50
10538;DHT22;5317;49.048;8.468;2022-09-09T04:11:09;19.80;77.30
10538;DHT22;5317;49.048;8.468;2022-09-09T04:13:37;19.90;77.60
10538;DHT22;5317;49.048;8.468;2022-09-09T04:16:05;19.90;77.80
10538;DHT22;5317;49.048;8.468;2022-09-09T04:18:33;19.90;77.50
10538;DHT22;5317;49.048;8.468;2022-09-09T04:21:01;19.90;77.50
10538;DHT22;5317;49.048;8.468;2022-09-09T04:23:29;19.90;77.80
10538;DHT22;5317;49.048;8.468;2022-09-09T04:25:59;19.90;77.80
10538;DHT22;5317;49.048;8.468;2022-09-09T04:28:29;19.90;78.00
10538;DHT22;5317;49.048;8.468;2022-09-09T04:31:04;19.90;78.20
10538;DHT22;5317;49.048;8.468;2022-09-09T04:33:31;19.90;78.40
10538;DHT22;5317;49.048;8.468;2022-09-09T04:35:59;19.90;78.10
10538;DHT22;5317;49.048;8.468;2022-09-09T04:38:26;19.90;78.00
10538;DHT22;5317;49.048;8.468;2022-09-09T04:40:54;19.80;77.70
10538;DHT22;5317;49.048;8.468;2022-09-09T04:43:23;19.80;77.70
10538;DHT22;5317;49.048;8.468;2022-09-09T04:45:56;19.80;77.70
10538;DHT22;5317;49.048;8.468;2022-09-09T04:48:24;19.80;77.80
10538;DHT22;5317;49.048;8.468;2022-09-09T04:50:56;19.70;78.00
10538;DHT22;5317;49.048;8.468;2022-09-09T04:53:25;19.60;78.30
10538;DHT22;5317;49.048;8.468;2022-09-09T04:55:52;19.50;78.40
10538;DHT22;5317;49.048;8.468;2022-09-09T04:58:20;19.50;78.50
10538;DHT22;5317;49.048;8.468;2022-09-09T05:00:49;19.50;78.40
10538;DHT22;5317;49.048;8.468;2022-09-09T05:03:16;19.50;78.40
10538;DHT22;5317;49.048;8.468;2022-09-09T05:05:43;19.60;78.30
10538;DHT22;5317;49.048;8.468;2022-09-09T05:08:10;19.70;78.90
10538;DHT22;5317;49.048;8.468;2022-09-09T05:10:38;19.60;78.20
10538;DHT22;5317;49.048;8.468;2022-09-09T05:13:07;19.70;78.00
10538;DHT22;5317;49.048;8.468;2022-09-09T05:15:36;19.80;77.70
10538;DHT22;5317;49.048;8.468;2022-09-09T05:18:03;19.80;77.60
10538;DHT22;5317;49.048;8.468;2022-09-09T05:20:30;19.90;77.20
10538;DHT22;5317;49.048;8.468;2022-09-09T05:22:58;19.90;77.10
10538;DHT22;5317;49.048;8.468;2022-09-09T05:25:25;19.90;76.70
10538;DHT22;5317;49.048;8.468;2022-09-09T05:27:52;20.00;76.70
10538;DHT22;5317;49.048;8.468;2022-09-09T05:30:20;20.00;75.80
10538;DHT22;5317;49.048;8.468;2022-09-09T05:32:51;20.00;75.80
10538;DHT22;5317;49.048;8.468;2022-09-09T05:35:18;20.00;75.60
10538;DHT22;5317;49.048;8.468;2022-09-09T05:37:46;20.10;75.40
10538;DHT22;5317;49.048;8.468;2022-09-09T05:40:14;20.10;75.10
10538;DHT22;5317;49.048;8.468;2022-09-09T05:42:41;20.10;75.40
10538;DHT22;5317;49.048;8.468;2022-09-09T05:45:09;20.10;75.30
10538;DHT22;5317;49.048;8.468;2022-09-09T05:47:37;20.10;75.40
10538;DHT22;5317;49.048;8.468;2022-09-09T05:50:06;20.20;75.00
10538;DHT22;5317;49.048;8.468;2022-09-09T05:52:34;20.20;74.90
10538;DHT22;5317;49.048;8.468;2022-09-09T05:55:01;20.20;74.80
10538;DHT22;5317;49.048;8.468;2022-09-09T05:57:30;20.20;75.10
10538;DHT22;5317;49.048;8.468;2022-09-09T05:59:57;20.30;75.10
10538;DHT22;5317;49.048;8.468;2022-09-09T06:02:25;20.30;74.50
10538;DHT22;5317;49.048;8.468;2022-09-09T06:04:55;20.40;74.50
10538;DHT22;5317;49.048;8.468;2022-09-09T06:07:24;20.50;74.40
10538;DHT22;5317;49.048;8.468;2022-09-09T06:09:52;20.50;74.20
10538;DHT22;5317;49.048;8.468;2022-09-09T06:12:19;20.60;73.40
10538;DHT22;5317;49.048;8.468;2022-09-09T06:14:46;20.70;73.70
10538;DHT22;5317;49.048;8.468;2022-09-09T06:17:16;20.80;73.80
10538;DHT22;5317;49.048;8.468;2022-09-09T06:23:28;20.90;73.40
10538;DHT22;5317;49.048;8.468;2022-09-09T06:26:03;20.90;72.70
10538;DHT22;5317;49.048;8.468;2022-09-09T06:28:32;20.90;72.20
10538;DHT22;5317;49.048;8.468;2022-09-09T06:30:59;20.90;71.70
10538;DHT22;5317;49.048;8.468;2022-09-09T06:33:32;21.00;71.70
10538;DHT22;5317;49.048;8.468;2022-09-09T06:36:02;21.00;71.30
10538;DHT22;5317;49.048;8.468;2022-09-09T06:38:32;21.10;71.30
10538;DHT22;5317;49.048;8.468;2022-09-09T06:40:59;21.10;71.30
10538;DHT22;5317;49.048;8.468;2022-09-09T06:43:27;21.20;71.00
10538;DHT22;5317;49.048;8.468;2022-09-09T06:45:56;21.20;70.90
10538;DHT22;5317;49.048;8.468;2022-09-09T06:48:28;21.30;70.30
10538;DHT22;5317;49.048;8.468;2022-09-09T06:51:04;21.40;70.40
10538;DHT22;5317;49.048;8.468;2022-09-09T06:53:35;21.40;69.70
10538;DHT22;5317;49.048;8.468;2022-09-09T06:56:18;21.40;69.30
10538;DHT22;5317;49.048;8.468;2022-09-09T06:58:49;21.40;69.10
10538;DHT22;5317;49.048;8.468;2022-09-09T07:01:19;21.50;69.80
10538;DHT22;5317;49.048;8.468;2022-09-09T07:03:50;21.60;69.70
10538;DHT22;5317;49.048;8.468;2022-09-09T07:06:20;21.60;69.80
10538;DHT22;5317;49.048;8.468;2022-09-09T07:08:52;21.60;69.60
10538;DHT22;5317;49.048;8.468;2022-09-09T07:11:22;21.70;69.30
10538;DHT22;5317;49.048;8.468;2022-09-09T07:13:51;21.70;68.80
10538;DHT22;5317;49.048;8.468;2022-09-09T07:16:19;21.70;68.70
10538;DHT22;5317;49.048;8.468;2022-09-09T07:18:48;21.80;69.00
10538;DHT22;5317;49.048;8.468;2022-09-09T07:21:18;21.80;68.50
10538;DHT22;5317;49.048;8.468;2022-09-09T07:23:46;21.90;68.70
10538;DHT22;5317;49.048;8.468;2022-09-09T07:26:17;22.00;68.50
10538;DHT22;5317;49.048;8.468;2022-09-09T07:28:47;22.00;67.00
10538;DHT22;5317;49.048;8.468;2022-09-09T07:31:16;22.00;67.90
10538;DHT22;5317;49.048;8.468;2022-09-09T07:33:45;22.00;67.80
10538;DHT22;5317;49.048;8.468;2022-09-09T07:36:17;22.10;67.60
10538;DHT22;5317;49.048;8.468;2022-09-09T07:38:48;22.10;68.60
10538;DHT22;5317;49.048;8.468;2022-09-09T07:41:20;22.10;68.90
10538;DHT22;5317;49.048;8.468;2022-09-09T07:43:50;22.00;68.80
10538;DHT22;5317;49.048;8.468;2022-09-09T07:46:20;22.00;68.70
10538;DHT22;5317;49.048;8.468;2022-09-09T07:48:50;21.90;68.80
10538;DHT22;5317;49.048;8.468;2022-09-09T07:51:21;22.00;69.50
10538;DHT22;5317;49.048;8.468;2022-09-09T07:53:52;22.00;70.40
10538;DHT22;5317;49.048;8.468;2022-09-09T07:56:22;22.00;69.20
10538;DHT22;5317;49.048;8.468;2022-09-09T07:58:52;22.10;69.70
10538;DHT22;5317;49.048;8.468;2022-09-09T08:01:23;22.10;69.60
10538;DHT22;5317;49.048;8.468;2022-09-09T08:03:56;22.10;69.50
10538;DHT22;5317;49.048;8.468;2022-09-09T08:06:27;22.20;69.70
10538;DHT22;5317;49.048;8.468;2022-09-09T08:08:55;22.40;69.10
10538;DHT22;5317;49.048;8.468;2022-09-09T08:11:25;22.50;68.60
10538;DHT22;5317;49.048;8.468;2022-09-09T08:13:56;22.60;68.60
10538;DHT22;5317;49.048;8.468;2022-09-09T08:16:24;22.70;67.60
10538;DHT22;5317;49.048;8.468;2022-09-09T08:18:55;22.80;66.70
10538;DHT22;5317;49.048;8.468;2022-09-09T08:21:28;22.80;68.30
10538;DHT22;5317;49.048;8.468;2022-09-09T08:24:01;22.90;65.90
10538;DHT22;5317;49.048;8.468;2022-09-09T08:26:31;22.90;65.20
10538;DHT22;5317;49.048;8.468;2022-09-09T08:29:01;23.00;66.20
10538;DHT22;5317;49.048;8.468;2022-09-09T08:31:32;23.10;64.80
10538;DHT22;5317;49.048;8.468;2022-09-09T08:34:01;22.90;65.20
10538;DHT22;5317;49.048;8.468;2022-09-09T08:36:32;22.90;65.70
10538;DHT22;5317;49.048;8.468;2022-09-09T08:39:01;22.90;66.90
10538;DHT22;5317;49.048;8.468;2022-09-09T08:41:58;22.90;67.80
10538;DHT22;5317;49.048;8.468;2022-09-09T08:45:10;22.80;67.60
10538;DHT22;5317;49.048;8.468;2022-09-09T08:47:54;22.80;68.20
10538;DHT22;5317;49.048;8.468;2022-09-09T08:50:32;22.70;66.80
10538;DHT22;5317;49.048;8.468;2022-09-09T08:53:08;22.60;67.10
10538;DHT22;5317;49.048;8.468;2022-09-09T08:55:45;22.70;67.60
10538;DHT22;5317;49.048;8.468;2022-09-09T08:58:17;22.80;67.90
10538;DHT22;5317;49.048;8.468;2022-09-09T09:01:04;23.00;66.30
10538;DHT22;5317;49.048;8.468;2022-09-09T09:03:53;23.10;66.20
10538;DHT22;5317;49.048;8.468;2022-09-09T09:06:35;23.20;65.50
10538;DHT22;5317;49.048;8.468;2022-09-09T09:09:21;23.10;64.90
10538;DHT22;5317;49.048;8.468;2022-09-09T09:11:59;22.90;65.20
10538;DHT22;5317;49.048;8.468;2022-09-09T09:14:33;22.80;66.90
10538;DHT22;5317;49.048;8.468;2022-09-09T09:17:05;22.70;67.40
10538;DHT22;5317;49.048;8.468;2022-09-09T09:19:38;22.70;67.30
10538;DHT22;5317;49.048;8.468;2022-09-09T09:22:16;22.60;67.50
10538;DHT22;5317;49.048;8.468;2022-09-09T09:24:52;22.70;67.50
10538;DHT22;5317;49.048;8.468;2022-09-09T09:27:30;22.70;67.60
10538;DHT22;5317;49.048;8.468;2022-09-09T09:30:05;22.60;67.00
10538;DHT22;5317;49.048;8.468;2022-09-09T09:32:44;22.70;66.50
10538;DHT22;5317;49.048;8.468;2022-09-09T09:35:19;22.80;65.10
10538;DHT22;5317;49.048;8.468;2022-09-09T09:37:46;22.60;65.70
10538;DHT22;5317;49.048;8.468;2022-09-09T09:40:16;22.80;65.00
10538;DHT22;5317;49.048;8.468;2022-09-09T09:42:51;23.00;62.30
10538;DHT22;5317;49.048;8.468;2022-09-09T09:45:32;23.00;62.30
10538;DHT22;5317;49.048;8.468;2022-09-09T09:48:02;23.30;60.60
10538;DHT22;5317;49.048;8.468;2022-09-09T09:50:31;23.50;60.40
10538;DHT22;5317;49.048;8.468;2022-09-09T09:53:03;23.50;57.50
10538;DHT22;5317;49.048;8.468;2022-09-09T09:55:33;23.40;58.70
10538;DHT22;5317;49.048;8.468;2022-09-09T09:58:04;23.50;58.50
10538;DHT22;5317;49.048;8.468;2022-09-09T10:00:34;23.60;57.80
10538;DHT22;5317;49.048;8.468;2022-09-09T10:03:01;23.60;58.30
10538;DHT22;5317;49.048;8.468;2022-09-09T10:05:46;23.80;57.20
10538;DHT22;5317;49.048;8.468;2022-09-09T10:08:15;23.80;57.10
10538;DHT22;5317;49.048;8.468;2022-09-09T10:11:00;23.90;57.40
10538;DHT22;5317;49.048;8.468;2022-09-09T10:13:44;24.10;57.00
10538;DHT22;5317;49.048;8.468;2022-09-09T10:16:34;24.20;56.70
10538;DHT22;5317;49.048;8.468;2022-09-09T10:19:15;24.10;56.10
10538;DHT22;5317;49.048;8.468;2022-09-09T10:22:04;24.30;57.10
10538;DHT22;5317;49.048;8.468;2022-09-09T10:25:13;24.40;57.40
10538;DHT22;5317;49.048;8.468;2022-09-09T10:28:16;24.50;55.60
10538;DHT22;5317;49.048;8.468;2022-09-09T10:31:04;24.50;56.10
10538;DHT22;5317;49.048;8.468;2022-09-09T10:33:50;24.60;55.50
10538;DHT22;5317;49.048;8.468;2022-09-09T10:36:25;24.80;55.30
10538;DHT22;5317;49.048;8.468;2022-09-09T10:38:58;24.90;55.00
10538;DHT22;5317;49.048;8.468;2022-09-09T10:41:40;24.90;54.50
10538;DHT22;5317;49.048;8.468;2022-09-09T10:44:47;24.90;54.00
10538;DHT22;5317;49.048;8.468;2022-09-09T10:47:56;24.70;54.20
10538;DHT22;5317;49.048;8.468;2022-09-09T10:50:51;24.50;55.50
10538;DHT22;5317;49.048;8.468;2022-09-09T10:53:35;24.60;55.60
10538;DHT22;5317;49.048;8.468;2022-09-09T10:56:11;24.80;55.10
10538;DHT22;5317;49.048;8.468;2022-09-09T10:58:46;24.70;54.90
10538;DHT22;5317;49.048;8.468;2022-09-09T11:01:21;24.80;54.70
10538;DHT22;5317;49.048;8.468;2022-09-09T11:03:56;24.90;54.60
10538;DHT22;5317;49.048;8.468;2022-09-09T11:06:34;25.10;54.10
10538;DHT22;5317;49.048;8.468;2022-09-09T11:09:13;25.20;53.20
10538;DHT22;5317;49.048;8.468;2022-09-09T11:11:47;25.30;52.90
10538;DHT22;5317;49.048;8.468;2022-09-09T11:14:26;25.40;52.20
10538;DHT22;5317;49.048;8.468;2022-09-09T11:17:00;25.40;52.60
10538;DHT22;5317;49.048;8.468;2022-09-09T11:19:34;25.50;52.50
10538;DHT22;5317;49.048;8.468;2022-09-09T11:22:12;25.60;52.10
10538;DHT22;5317;49.048;8.468;2022-09-09T11:24:48;25.70;52.10
10538;DHT22;5317;49.048;8.468;2022-09-09T11:27:23;25.80;52.50
10538;DHT22;5317;49.048;8.468;2022-09-09T11:30:11;25.80;52.20
10538;DHT22;5317;49.048;8.468;2022-09-09T11:33:20;25.70;52.20
10538;DHT22;5317;49.048;8.468;2022-09-09T11:36:36;25.60;52.00
10538;DHT22;5317;49.048;8.468;2022-09-09T11:39:42;25.90;51.80
10538;DHT22;5317;49.048;8.468;2022-09-09T11:42:22;26.00;51.30
10538;DHT22;5317;49.048;8.468;2022-09-09T11:44:51;26.10;52.10
10538;DHT22;5317;49.048;8.468;2022-09-09T11:47:23;26.10;51.70
10538;DHT22;5317;49.048;8.468;2022-09-09T11:49:55;26.20;51.90
10538;DHT22;5317;49.048;8.468;2022-09-09T11:52:37;26.30;52.20
10538;DHT22;5317;49.048;8.468;2022-09-09T11:55:24;26.40;51.80
10538;DHT22;5317;49.048;8.468;2022-09-09T11:57:58;26.30;51.30
10538;DHT22;5317;49.048;8.468;2022-09-09T12:00:34;26.40;51.30
10538;DHT22;5317;49.048;8.468;2022-09-09T12:03:04;26.40;51.00
10538;DHT22;5317;49.048;8.468;2022-09-09T12:05:40;26.30;50.70
10538;DHT22;5317;49.048;8.468;2022-09-09T12:08:15;26.30;51.80
10538;DHT22;5317;49.048;8.468;2022-09-09T12:10:55;26.50;51.50
10538;DHT22;5317;49.048;8.468;2022-09-09T12:13:26;26.60;50.60
10538;DHT22;5317;49.048;8.468;2022-09-09T12:15:55;26.50;51.20
10538;DHT22;5317;49.048;8.468;2022-09-09T12:18:25;26.70;51.20
10538;DHT22;5317;49.048;8.468;2022-09-09T12:21:04;26.90;50.30
10538;DHT22;5317;49.048;8.468;2022-09-09T12:23:42;26.90;50.00
10538;DHT22;5317;49.048;8.468;2022-09-09T12:26:30;27.00;50.10
10538;DHT22;5317;49.048;8.468;2022-09-09T12:29:16;26.90;48.30
10538;DHT22;5317;49.048;8.468;2022-09-09T12:31:58;26.60;48.80
10538;DHT22;5317;49.048;8.468;2022-09-09T12:34:38;26.50;49.60
10538;DHT22;5317;49.048;8.468;2022-09-09T12:37:15;26.30;49.60
10538;DHT22;5317;49.048;8.468;2022-09-09T12:39:51;26.20;50.60
10538;DHT22;5317;49.048;8.468;2022-09-09T12:42:25;26.10;50.20
10538;DHT22;5317;49.048;8.468;2022-09-09T12:44:55;25.90;50.00
10538;DHT22;5317;49.048;8.468;2022-09-09T12:47:29;25.80;50.20
10538;DHT22;5317;49.048;8.468;2022-09-09T12:50:04;25.70;51.00
10538;DHT22;5317;49.048;8.468;2022-09-09T12:52:44;25.80;51.30
10538;DHT22;5317;49.048;8.468;2022-09-09T12:55:17;25.90;52.00
10538;DHT22;5317;49.048;8.468;2022-09-09T12:57:49;25.90;52.60
10538;DHT22;5317;49.048;8.468;2022-09-09T13:00:19;25.80;54.10
10538;DHT22;5317;49.048;8.468;2022-09-09T13:02:51;25.80;55.10
10538;DHT22;5317;49.048;8.468;2022-09-09T13:05:23;26.20;55.10
10538;DHT22;5317;49.048;8.468;2022-09-09T13:07:51;26.40;54.80
10538;DHT22;5317;49.048;8.468;2022-09-09T13:10:47;26.40;54.00
10538;DHT22;5317;49.048;8.468;2022-09-09T13:13:22;26.20;54.30
10538;DHT22;5317;49.048;8.468;2022-09-09T13:15:54;25.80;52.70
10538;DHT22;5317;49.048;8.468;2022-09-09T13:18:25;25.70;53.80
10538;DHT22;5317;49.048;8.468;2022-09-09T13:20:55;25.70;56.10
10538;DHT22;5317;49.048;8.468;2022-09-09T13:23:27;25.80;56.80
10538;DHT22;5317;49.048;8.468;2022-09-09T13:25:58;25.80;58.00
10538;DHT22;5317;49.048;8.468;2022-09-09T13:28:29;25.90;58.80
10538;DHT22;5317;49.048;8.468;2022-09-09T13:31:00;26.00;58.50
10538;DHT22;5317;49.048;8.468;2022-09-09T13:33:33;26.10;58.10
10538;DHT22;5317;49.048;8.468;2022-09-09T13:36:04;26.40;58.30
10538;DHT22;5317;49.048;8.468;2022-09-09T13:38:36;26.90;57.70
10538;DHT22;5317;49.048;8.468;2022-09-09T13:41:06;27.20;56.60
10538;DHT22;5317;49.048;8.468;2022-09-09T13:43:38;27.70;56.00
10538;DHT22;5317;49.048;8.468;2022-09-09T13:46:25;28.10;54.50
10538;DHT22;5317;49.048;8.468;2022-09-09T13:48:58;28.40;53.10
10538;DHT22;5317;49.048;8.468;2022-09-09T13:51:34;28.70;53.20
10538;DHT22;5317;49.048;8.468;2022-09-09T13:54:03;28.90;52.10
10538;DHT22;5317;49.048;8.468;2022-09-09T13:56:32;29.00;52.20
10538;DHT22;5317;49.048;8.468;2022-09-09T13:59:01;28.90;52.30
10538;DHT22;5317;49.048;8.468;2022-09-09T14:01:28;28.60;52.70
10538;DHT22;5317;49.048;8.468;2022-09-09T14:03:57;28.30;52.50
10538;DHT22;5317;49.048;8.468;2022-09-09T14:06:24;28.20;53.10
10538;DHT22;5317;49.048;8.468;2022-09-09T14:08:53;27.90;54.00
10538;DHT22;5317;49.048;8.468;2022-09-09T14:11:22;27.70;54.20
10538;DHT22;5317;49.048;8.468;2022-09-09T14:13:50;27.50;54.70
10538;DHT22;5317;49.048;8.468;2022-09-09T14:16:19;27.30;55.30
10538;DHT22;5317;49.048;8.468;2022-09-09T14:18:47;27.20;55.60
10538;DHT22;5317;49.048;8.468;2022-09-09T14:21:14;27.00;55.80
10538;DHT22;5317;49.048;8.468;2022-09-09T14:23:42;26.80;56.70
10538;DHT22;5317;49.048;8.468;2022-09-09T14:26:09;26.70;57.70
10538;DHT22;5317;49.048;8.468;2022-09-09T14:28:36;26.40;57.90
10538;DHT22;5317;49.048;8.468;2022-09-09T14:31:06;26.00;58.00
10538;DHT22;5317;49.048;8.468;2022-09-09T14:33:35;25.70;59.70
10538;DHT22;5317;49.048;8.468;2022-09-09T14:36:04;25.40;60.40
10538;DHT22;5317;49.048;8.468;2022-09-09T14:38:33;25.20;60.90
10538;DHT22;5317;49.048;8.468;2022-09-09T14:41:05;24.90;62.50
10538;DHT22;5317;49.048;8.468;2022-09-09T14:43:32;24.50;59.60
10538;DHT22;5317;49.048;8.468;2022-09-09T14:46:05;24.40;60.80
10538;DHT22;5317;49.048;8.468;2022-09-09T14:48:32;24.30;63.70
10538;DHT22;5317;49.048;8.468;2022-09-09T14:51:07;24.30;64.10
10538;DHT22;5317;49.048;8.468;2022-09-09T14:53:35;24.30;65.40
10538;DHT22;5317;49.048;8.468;2022-09-09T14:56:04;24.20;65.60
10538;DHT22;5317;49.048;8.468;2022-09-09T14:58:36;24.20;65.80
10538;DHT22;5317;49.048;8.468;2022-09-09T15:01:05;24.00;66.90
10538;DHT22;5317;49.048;8.468;2022-09-09T15:03:33;23.80;68.00
10538;DHT22;5317;49.048;8.468;2022-09-09T15:06:06;23.60;64.50
10538;DHT22;5317;49.048;8.468;2022-09-09T15:08:35;23.60;66.00
10538;DHT22;5317;49.048;8.468;2022-09-09T15:11:04;23.60;66.80
10538;DHT22;5317;49.048;8.468;2022-09-09T15:13:33;23.70;68.70
10538;DHT22;5317;49.048;8.468;2022-09-09T15:16:06;23.80;66.10
10538;DHT22;5317;49.048;8.468;2022-09-09T15:18:35;23.80;66.50
10538;DHT22;5317;49.048;8.468;2022-09-09T15:21:09;23.90;66.60
10538;DHT22;5317;49.048;8.468;2022-09-09T15:23:37;24.00;65.50
10538;DHT22;5317;49.048;8.468;2022-09-09T15:26:05;24.10;67.00
10538;DHT22;5317;49.048;8.468;2022-09-09T15:28:34;24.10;65.30
10538;DHT22;5317;49.048;8.468;2022-09-09T15:31:06;24.20;65.50
10538;DHT22;5317;49.048;8.468;2022-09-09T15:33:36;24.20;65.10
10538;DHT22;5317;49.048;8.468;2022-09-09T15:36:15;24.20;66.60
10538;DHT22;5317;49.048;8.468;2022-09-09T15:38:43;24.10;66.20
10538;DHT22;5317;49.048;8.468;2022-09-09T15:41:11;24.00;65.80
10538;DHT22;5317;49.048;8.468;2022-09-09T15:43:43;24.00;66.90
10538;DHT22;5317;49.048;8.468;2022-09-09T15:46:26;23.80;68.20
10538;DHT22;5317;49.048;8.468;2022-09-09T15:48:56;23.90;69.30
10538;DHT22;5317;49.048;8.468;2022-09-09T15:51:26;23.80;68.30
10538;DHT22;5317;49.048;8.468;2022-09-09T15:53:54;23.60;69.00
10538;DHT22;5317;49.048;8.468;2022-09-09T15:56:23;23.50;70.00
10538;DHT22;5317;49.048;8.468;2022-09-09T15:58:50;23.50;69.60
10538;DHT22;5317;49.048;8.468;2022-09-09T16:01:18;23.50;68.80
10538;DHT22;5317;49.048;8.468;2022-09-09T16:03:46;23.50;67.40
10538;DHT22;5317;49.048;8.468;2022-09-09T16:06:17;23.40;66.30
10538;DHT22;5317;49.048;8.468;2022-09-09T16:08:49;23.20;67.10
10538;DHT22;5317;49.048;8.468;2022-09-09T16:11:20;23.10;66.80
10538;DHT22;5317;49.048;8.468;2022-09-09T16:13:51;23.00;66.80
10538;DHT22;5317;49.048;8.468;2022-09-09T16:16:21;22.90;67.70
10538;DHT22;5317;49.048;8.468;2022-09-09T16:18:51;22.90;67.00
10538;DHT22;5317;49.048;8.468;2022-09-09T16:21:21;22.80;66.00
10538;DHT22;5317;49.048;8.468;2022-09-09T16:23:53;22.70;65.00
10538;DHT22;5317;49.048;8.468;2022-09-09T16:26:20;22.70;65.00
10538;DHT22;5317;49.048;8.468;2022-09-09T16:28:48;22.70;64.90